sensor_id;sensor_type;location;lat;lon;timestamp;temperature;humidity
30467;DHT22;17258;52.560;13.046;2022-11-15T00:07:30;9.60;65.30
30467;DHT22;17258;52.560;13.046;2022-11-15T00:17:31;9.50;65.20
30467;DHT22;17258;52.560;13.046;2022-11-15T00:27:32;9.50;65.20
30467;DHT22;17258;52.560;13.046;2022-11-15T00:37:32;9.40;65.20
30467;DHT22;17258;52.560;13.046;2022-11-15T00:47:33;9.40;65.20
30467;DHT22;17258;52.560;13.046;2022-11-15T00:57:33;9.30;65.10
30467;DHT22;17258;52.560;13.046;2022-11-15T01:07:34;9.30;65.20
30467;DHT22;17258;52.560;13.046;2022-11-15T01:17:35;9.20;65.20
30467;DHT22;17258;52.560;13.046;2022-11-15T01:27:36;9.20;65.20
30467;DHT22;17258;52.560;13.046;2022-11-15T01:37:36;9.10;65.20
30467;DHT22;17258;52.560;13.046;2022-11-15T01:47:40;9.00;65.20
30467;DHT22;17258;52.560;13.046;2022-11-15T01:57:48;9.00;65.20
30467;DHT22;17258;52.560;13.046;2022-11-15T02:07:51;8.90;65.10
30467;DHT22;17258;52.560;13.046;2022-11-15T02:18:14;8.90;65.10
30467;DHT22;17258;52.560;13.046;2022-11-15T02:39:18;8.70;65.30
30467;DHT22;17258;52.560;13.046;2022-11-15T02:49:25;8.70;65.40
30467;DHT22;17258;52.560;13.046;2022-11-15T03:00:09;8.60;65.20
30467;DHT22;17258;52.560;13.046;2022-11-15T03:10:23;8.50;65.40
30467;DHT22;17258;52.560;13.046;2022-11-15T03:20:28;8.50;65.40
30467;DHT22;17258;52.560;13.046;2022-11-15T03:30:31;8.50;65.30
30467;DHT22;17258;52.560;13.046;2022-11-15T03:40:47;8.50;65.40
30467;DHT22;17258;52.560;13.046;2022-11-15T03:50:52;8.40;65.50
30467;DHT22;17258;52.560;13.046;2022-11-15T04:00:53;8.40;65.40
30467;DHT22;17258;52.560;13.046;2022-11-15T04:10:54;8.40;65.40
30467;DHT22;17258;52.560;13.046;2022-11-15T04:20:54;8.30;65.30
30467;DHT22;17258;52.560;13.046;2022-11-15T04:31:14;8.30;65.40
30467;DHT22;17258;52.560;13.046;2022-11-15T04:41:14;8.20;65.30
30467;DHT22;17258;52.560;13.046;2022-11-15T04:51:15;8.20;65.40
30467;DHT22;17258;52.560;13.046;2022-11-15T05:01:16;8.20;65.50
30467;DHT22;17258;52.560;13.046;2022-11-15T05:11:17;8.10;65.40
30467;DHT22;17258;52.560;13.046;2022-11-15T05:21:18;8.10;65.40
30467;DHT22;17258;52.560;13.046;2022-11-15T05:31:19;8.10;65.50
30467;DHT22;17258;52.560;13.046;2022-11-15T05:41:25;8.10;65.50
30467;DHT22;17258;52.560;13.046;2022-11-15T05:51:29;8.10;65.60
30467;DHT22;17258;52.560;13.046;2022-11-15T06:01:30;8.10;65.60
30467;DHT22;17258;52.560;13.046;2022-11-15T06:11:30;8.10;65.70
30467;DHT22;17258;52.560;13.046;2022-11-15T06:21:31;8.00;65.50
30467;DHT22;17258;52.560;13.046;2022-11-15T06:31:33;8.10;65.60
30467;DHT22;17258;52.560;13.046;2022-11-15T06:41:35;8.00;65.50
30467;DHT22;17258;52.560;13.046;2022-11-15T06:51:36;8.00;65.60
30467;DHT22;17258;52.560;13.046;2022-11-15T07:01:36;8.00;65.70
30467;DHT22;17258;52.560;13.046;2022-11-15T07:11:37;8.00;65.80
30467;DHT22;17258;52.560;13.046;2022-11-15T07:21:39;8.10;65.90
30467;DHT22;17258;52.560;13.046;2022-11-15T07:31:39;8.10;65.90
30467;DHT22;17258;52.560;13.046;2022-11-15T07:41:40;8.10;66.00
30467;DHT22;17258;52.560;13.046;2022-11-15T07:51:41;8.20;66.20
30467;DHT22;17258;52.560;13.046;2022-11-15T08:01:41;8.30;66.40
30467;DHT22;17258;52.560;13.046;2022-11-15T08:11:42;8.40;66.60
30467;DHT22;17258;52.560;13.046;2022-11-15T08:21:42;8.60;66.90
30467;DHT22;17258;52.560;13.046;2022-11-15T08:31:43;8.80;67.20
30467;DHT22;17258;52.560;13.046;2022-11-15T08:41:44;9.10;67.50
30467;DHT22;17258;52.560;13.046;2022-11-15T08:51:45;9.40;67.80
30467;DHT22;17258;52.560;13.046;2022-11-15T09:01:45;9.70;68.10
30467;DHT22;17258;52.560;13.046;2022-11-15T09:11:46;10.00;68.30
30467;DHT22;17258;52.560;13.046;2022-11-15T09:21:46;10.40;68.40
30467;DHT22;17258;52.560;13.046;2022-11-15T09:31:47;10.80;68.50
30467;DHT22;17258;52.560;13.046;2022-11-15T09:52:11;11.50;68.60
30467;DHT22;17258;52.560;13.046;2022-11-15T10:12:33;12.10;68.80
30467;DHT22;17258;52.560;13.046;2022-11-15T10:22:47;12.40;68.50
30467;DHT22;17258;52.560;13.046;2022-11-15T10:32:50;12.70;68.60
30467;DHT22;17258;52.560;13.046;2022-11-15T10:53:40;13.30;68.60
30467;DHT22;17258;52.560;13.046;2022-11-15T11:03:57;13.50;68.50
30467;DHT22;17258;52.560;13.046;2022-11-15T11:14:12;13.80;68.30
30467;DHT22;17258;52.560;13.046;2022-11-15T11:35:11;14.40;68.30
30467;DHT22;17258;52.560;13.046;2022-11-15T11:45:24;14.80;68.20
30467;DHT22;17258;52.560;13.046;2022-11-15T11:55:44;15.10;68.10
30467;DHT22;17258;52.560;13.046;2022-11-15T12:05:50;15.50;67.90
30467;DHT22;17258;52.560;13.046;2022-11-15T12:16:05;15.80;67.80
30467;DHT22;17258;52.560;13.046;2022-11-15T12:26:20;16.10;67.70
30467;DHT22;17258;52.560;13.046;2022-11-15T12:56:44;16.70;66.30
30467;DHT22;17258;52.560;13.046;2022-11-15T13:06:47;16.90;66.40
30467;DHT22;17258;52.560;13.046;2022-11-15T13:16:58;17.00;66.20
30467;DHT22;17258;52.560;13.046;2022-11-15T13:26:59;17.00;65.80
30467;DHT22;17258;52.560;13.046;2022-11-15T13:37:00;17.00;65.80
30467;DHT22;17258;52.560;13.046;2022-11-15T13:57:20;17.00;65.60
30467;DHT22;17258;52.560;13.046;2022-11-15T14:07:24;16.90;65.30
30467;DHT22;17258;52.560;13.046;2022-11-15T14:27:30;16.90;65.20
30467;DHT22;17258;52.560;13.046;2022-11-15T14:37:32;16.80;65.10
30467;DHT22;17258;52.560;13.046;2022-11-15T14:47:34;16.80;65.10
30467;DHT22;17258;52.560;13.046;2022-11-15T14:57:35;16.70;64.90
30467;DHT22;17258;52.560;13.046;2022-11-15T15:07:36;16.50;64.80
30467;DHT22;17258;52.560;13.046;2022-11-15T15:17:36;16.40;65.40
30467;DHT22;17258;52.560;13.046;2022-11-15T15:27:37;16.20;64.50
30467;DHT22;17258;52.560;13.046;2022-11-15T15:37:38;16.00;64.20
30467;DHT22;17258;52.560;13.046;2022-11-15T15:47:38;15.80;64.10
30467;DHT22;17258;52.560;13.046;2022-11-15T15:57:39;15.50;64.20
30467;DHT22;17258;52.560;13.046;2022-11-15T16:07:40;15.30;64.30
30467;DHT22;17258;52.560;13.046;2022-11-15T16:17:54;15.10;64.40
30467;DHT22;17258;52.560;13.046;2022-11-15T16:27:56;14.90;64.40
30467;DHT22;17258;52.560;13.046;2022-11-15T16:37:57;14.70;64.50
30467;DHT22;17258;52.560;13.046;2022-11-15T16:47:58;14.50;64.50
30467;DHT22;17258;52.560;13.046;2022-11-15T16:57:58;14.30;64.60
30467;DHT22;17258;52.560;13.046;2022-11-15T17:08:00;14.10;64.70
30467;DHT22;17258;52.560;13.046;2022-11-15T17:18:01;13.90;64.70
30467;DHT22;17258;52.560;13.046;2022-11-15T17:28:01;13.80;64.70
30467;DHT22;17258;52.560;13.046;2022-11-15T17:38:02;13.60;64.80
30467;DHT22;17258;52.560;13.046;2022-11-15T17:48:03;13.50;65.00
30467;DHT22;17258;52.560;13.046;2022-11-15T17:58:03;13.30;65.10
30467;DHT22;17258;52.560;13.046;2022-11-15T18:08:04;13.20;65.20
30467;DHT22;17258;52.560;13.046;2022-11-15T18:18:05;13.10;65.30
30467;DHT22;17258;52.560;13.046;2022-11-15T18:28:05;13.00;65.40
30467;DHT22;17258;52.560;13.046;2022-11-15T18:38:06;12.90;65.40
30467;DHT22;17258;52.560;13.046;2022-11-15T18:48:06;12.80;65.50
30467;DHT22;17258;52.560;13.046;2022-11-15T18:58:07;12.80;65.60
30467;DHT22;17258;52.560;13.046;2022-11-15T19:08:08;12.70;65.70
30467;DHT22;17258;52.560;13.046;2022-11-15T19:18:08;12.70;65.70
30467;DHT22;17258;52.560;13.046;2022-11-15T19:28:09;12.60;65.70
30467;DHT22;17258;52.560;13.046;2022-11-15T19:38:11;12.60;65.80
30467;DHT22;17258;52.560;13.046;2022-11-15T19:48:11;12.50;65.70
30467;DHT22;17258;52.560;13.046;2022-11-15T19:58:12;12.40;65.70
30467;DHT22;17258;52.560;13.046;2022-11-15T20:08:13;12.30;65.60
30467;DHT22;17258;52.560;13.046;2022-11-15T20:18:13;12.20;65.40
30467;DHT22;17258;52.560;13.046;2022-11-15T20:28:19;12.10;65.50
30467;DHT22;17258;52.560;13.046;2022-11-15T20:38:21;11.90;65.50
30467;DHT22;17258;52.560;13.046;2022-11-15T20:48:22;11.80;65.70
30467;DHT22;17258;52.560;13.046;2022-11-15T20:58:23;11.80;66.00
30467;DHT22;17258;52.560;13.046;2022-11-15T21:08:27;11.70;66.20
30467;DHT22;17258;52.560;13.046;2022-11-15T21:18:48;11.70;66.30
30467;DHT22;17258;52.560;13.046;2022-11-15T21:28:48;11.80;66.40
30467;DHT22;17258;52.560;13.046;2022-11-15T21:38:49;11.80;66.50
30467;DHT22;17258;52.560;13.046;2022-11-15T21:48:50;11.80;66.50
30467;DHT22;17258;52.560;13.046;2022-11-15T21:58:51;11.90;66.60
30467;DHT22;17258;52.560;13.046;2022-11-15T22:08:53;11.90;66.70
30467;DHT22;17258;52.560;13.046;2022-11-15T22:18:53;11.90;66.70
30467;DHT22;17258;52.560;13.046;2022-11-15T22:28:54;11.90;66.60
30467;DHT22;17258;52.560;13.046;2022-11-15T22:38:55;11.90;67.30
30467;DHT22;17258;52.560;13.046;2022-11-15T22:48:55;11.90;66.50
30467;DHT22;17258;52.560;13.046;2022-11-15T22:58:56;11.90;66.50
30467;DHT22;17258;52.560;13.046;2022-11-15T23:08:56;11.90;66.70
30467;DHT22;17258;52.560;13.046;2022-11-15T23:18:59;11.90;66.80
30467;DHT22;17258;52.560;13.046;2022-11-15T23:29:02;11.90;66.70
30467;DHT22;17258;52.560;13.046;2022-11-15T23:39:03;11.80;66.70
30467;DHT22;17258;52.560;13.046;2022-11-15T23:49:04;11.80;66.80
30467;DHT22;17258;52.560;13.046;2022-11-15T23:59:05;11.80;66.70
